Time;durP1;ratioP1;P1;durP2;ratioP2;P2;SDS_P1;SDS_P2;PMS_P1;PMS_P2;Temp;Humidity;BMP_temperature;BMP_pressure;BME280_temperature;BME280_humidity;BME280_pressure;Samples;Min_cycle;Max_cycle;Signal;HPM_P1;HPM_P2
2023/01/21 00:05:06;;;;;;;41.30;25.95;;;;;;;;;;6313617;22;20153;-96
2023/01/21 00:07:33;;;;;;;39.08;24.73;;;;;;;;;;6286930;22;20011;-96
2023/01/21 00:09:59;;;;;;;37.83;24.88;;;;;;;;;;6314272;22;20263;-95
2023/01/21 00:12:25;;;;;;;43.05;25.10;;;;;;;;;;6314234;22;19999;-95
2023/01/21 00:14:51;;;;;;;52.25;28.25;;;;;;;;;;6313992;22;20370;-96
2023/01/21 00:17:17;;;;;;;44.53;26.85;;;;;;;;;;6313873;22;20377;-96
2023/01/21 00:19:43;;;;;;;45.08;26.33;;;;;;;;;;6313990;22;20003;-95
2023/01/21 00:22:09;;;;;;;44.28;26.95;;;;;;;;;;6287135;22;20014;-94
2023/01/21 00:24:35;;;;;;;44.42;26.60;;;;;;;;;;6313632;22;20066;-96
2023/01/21 00:27:01;;;;;;;43.72;26.27;;;;;;;;;;6313714;22;20008;-95
2023/01/21 00:29:27;;;;;;;40.30;25.13;;;;;;;;;;6286381;22;20250;-95
2023/01/21 00:31:53;;;;;;;43.67;25.75;;;;;;;;;;6286616;22;20086;-94
2023/01/21 00:34:19;;;;;;;38.47;23.85;;;;;;;;;;6286490;22;20003;-95
2023/01/21 00:36:46;;;;;;;39.78;25.30;;;;;;;;;;6313389;22;19999;-95
2023/01/21 00:39:12;;;;;;;36.50;24.13;;;;;;;;;;6313711;22;19999;-94
2023/01/21 00:41:38;;;;;;;36.55;23.27;;;;;;;;;;6285945;22;20094;-95
2023/01/21 00:44:04;;;;;;;38.60;24.00;;;;;;;;;;6313550;22;20019;-94
2023/01/21 00:46:31;;;;;;;38.60;24.10;;;;;;;;;;6313914;22;20003;-94
2023/01/21 00:48:59;;;;;;;40.13;23.92;;;;;;;;;;6312990;22;20025;-95
2023/01/21 00:51:25;;;;;;;39.38;24.52;;;;;;;;;;6286212;22;20004;-96
2023/01/21 00:53:51;;;;;;;36.40;24.02;;;;;;;;;;6313756;22;20015;-95
2023/01/21 00:56:17;;;;;;;38.85;23.88;;;;;;;;;;6312629;22;20074;-96
2023/01/21 00:58:43;;;;;;;36.80;23.48;;;;;;;;;;6313031;22;20369;-96
2023/01/21 01:01:12;;;;;;;34.72;23.25;;;;;;;;;;6313065;22;20003;-96
2023/01/21 01:03:38;;;;;;;36.13;22.67;;;;;;;;;;6313652;22;20011;-96
2023/01/21 01:06:09;;;;;;;39.22;23.10;;;;;;;;;;6286302;22;19999;-95
2023/01/21 01:08:35;;;;;;;41.60;24.33;;;;;;;;;;6285827;22;20014;-96
2023/01/21 01:11:01;;;;;;;36.97;23.55;;;;;;;;;;6313283;22;20321;-95
2023/01/21 01:13:28;;;;;;;38.35;24.15;;;;;;;;;;6313189;22;20082;-94
2023/01/21 01:15:56;;;;;;;36.40;23.60;;;;;;;;;;6313208;22;19995;-94
2023/01/21 01:18:25;;;;;;;37.03;23.30;;;;;;;;;;6285927;22;20018;-94
2023/01/21 01:20:52;;;;;;;41.05;24.00;;;;;;;;;;6313257;22;20358;-95
2023/01/21 01:23:18;;;;;;;39.28;24.83;;;;;;;;;;6286342;22;20010;-95
2023/01/21 01:25:53;;;;;;;40.53;24.80;;;;;;;;;;6285148;22;20358;-95
2023/01/21 01:28:19;;;;;;;41.58;24.63;;;;;;;;;;6312767;22;20358;-95
2023/01/21 01:34:50;;;;;;;38.95;24.35;;;;;;;;;;6314295;22;20017;-96
2023/01/21 01:37:16;;;;;;;41.50;24.02;;;;;;;;;;6287122;22;20181;-96
2023/01/21 01:39:42;;;;;;;37.70;23.98;;;;;;;;;;6314300;22;20026;-96
2023/01/21 01:42:14;;;;;;;40.38;24.45;;;;;;;;;;6315069;22;20006;-96
2023/01/21 01:44:52;;;;;;;40.83;25.27;;;;;;;;;;6313892;22;20007;-96
2023/01/21 01:50:22;;;;;;;40.67;24.15;;;;;;;;;;6313053;22;20091;-95
2023/01/21 01:52:48;;;;;;;43.53;25.60;;;;;;;;;;6312882;22;19995;-95
2023/01/21 01:55:14;;;;;;;39.60;24.75;;;;;;;;;;6286282;22;20003;-94
2023/01/21 01:57:43;;;;;;;41.30;24.95;;;;;;;;;;6312803;22;20074;-95
2023/01/21 02:00:11;;;;;;;39.30;24.70;;;;;;;;;;6313162;22;20014;-95
2023/01/21 02:02:38;;;;;;;39.75;24.60;;;;;;;;;;6313014;22;20407;-95
2023/01/21 02:05:05;;;;;;;37.55;24.65;;;;;;;;;;6285903;22;20007;-95
2023/01/21 02:07:38;;;;;;;41.63;25.23;;;;;;;;;;6313238;22;20074;-95
2023/01/21 02:10:05;;;;;;;38.28;24.10;;;;;;;;;;6313057;22;20042;-95
2023/01/21 02:12:32;;;;;;;37.42;23.73;;;;;;;;;;6313331;22;20074;-95
2023/01/21 02:14:58;;;;;;;38.45;24.25;;;;;;;;;;6285904;22;20003;-95
2023/01/21 02:20:46;;;;;;;41.92;26.02;;;;;;;;;;6312704;22;20014;-94
2023/01/21 02:23:27;;;;;;;39.03;23.92;;;;;;;;;;6312702;22;20011;-94
2023/01/21 02:25:56;;;;;;;37.58;23.42;;;;;;;;;;6285701;22;20007;-93
2023/01/21 02:28:41;;;;;;;42.00;24.65;;;;;;;;;;6287257;22;20015;-95
2023/01/21 02:34:30;;;;;;;33.75;22.30;;;;;;;;;;6314619;22;20003;-94
2023/01/21 02:36:59;;;;;;;38.58;24.05;;;;;;;;;;6287646;22;20258;-95
2023/01/21 02:39:43;;;;;;;39.33;24.23;;;;;;;;;;6315039;22;20362;-94
2023/01/21 02:42:20;;;;;;;42.75;24.58;;;;;;;;;;6314695;22;20003;-93
2023/01/21 02:44:59;;;;;;;66.70;29.52;;;;;;;;;;6287355;22;20025;-95
2023/01/21 02:47:43;;;;;;;69.28;29.25;;;;;;;;;;6314881;22;20008;-94
2023/01/21 02:50:18;;;;;;;55.58;27.48;;;;;;;;;;6314507;22;20003;-94
2023/01/21 02:52:44;;;;;;;48.95;25.98;;;;;;;;;;6314379;22;19999;-93
2023/01/21 02:55:15;;;;;;;52.53;26.17;;;;;;;;;;6314308;22;20003;-93
2023/01/21 02:57:49;;;;;;;50.63;25.08;;;;;;;;;;6314231;22;20011;-93
2023/01/21 03:00:22;;;;;;;41.15;25.52;;;;;;;;;;6287534;22;20089;-93
2023/01/21 03:02:57;;;;;;;37.28;23.17;;;;;;;;;;6314768;22;20293;-94
2023/01/21 03:05:23;;;;;;;34.42;21.75;;;;;;;;;;6314864;22;20003;-95
2023/01/21 03:08:02;;;;;;;35.90;23.13;;;;;;;;;;6287549;22;20023;-94
2023/01/21 03:10:42;;;;;;;36.63;21.98;;;;;;;;;;6287275;22;20042;-94
2023/01/21 03:22:57;;;;;;;32.95;20.27;;;;;;;;;;6314377;22;20073;-95
2023/01/21 03:25:24;;;;;;;32.38;19.88;;;;;;;;;;6314405;22;20023;-93
2023/01/21 03:27:50;;;;;;;30.85;19.40;;;;;;;;;;6314382;22;20000;-94
2023/01/21 03:30:17;;;;;;;32.90;20.50;;;;;;;;;;6313818;22;20049;-93
2023/01/21 03:32:46;;;;;;;33.85;21.13;;;;;;;;;;6313879;22;20070;-93
2023/01/21 03:35:14;;;;;;;35.13;21.10;;;;;;;;;;6314109;22;20003;-95
2023/01/21 03:37:42;;;;;;;34.08;21.52;;;;;;;;;;6287009;22;20041;-94
2023/01/21 03:40:09;;;;;;;33.30;21.52;;;;;;;;;;6314707;22;20356;-95
2023/01/21 03:42:35;;;;;;;33.63;21.45;;;;;;;;;;6313858;22;20003;-95
2023/01/21 03:45:01;;;;;;;38.22;22.67;;;;;;;;;;6313990;22;20004;-94
2023/01/21 03:50:34;;;;;;;36.55;23.45;;;;;;;;;;6314769;22;20018;-94
2023/01/21 03:53:01;;;;;;;34.03;22.08;;;;;;;;;;6287490;22;20064;-94
2023/01/21 03:55:27;;;;;;;37.92;22.85;;;;;;;;;;6286745;22;20011;-93
2023/01/21 03:57:53;;;;;;;35.28;22.00;;;;;;;;;;6314556;22;20045;-93
2023/01/21 04:00:19;;;;;;;35.65;21.70;;;;;;;;;;6287019;22;20014;-94
2023/01/21 04:02:45;;;;;;;34.78;21.70;;;;;;;;;;6286666;22;20086;-93
2023/01/21 04:05:13;;;;;;;34.25;21.17;;;;;;;;;;6287094;22;20003;-94
2023/01/21 04:07:39;;;;;;;36.72;22.13;;;;;;;;;;6313270;22;20003;-94
2023/01/21 04:10:05;;;;;;;36.00;22.17;;;;;;;;;;6286751;22;20015;-94
2023/01/21 04:12:32;;;;;;;35.60;21.52;;;;;;;;;;6313586;22;20363;-94
2023/01/21 04:14:58;;;;;;;36.60;22.20;;;;;;;;;;6313840;22;20007;-94
2023/01/21 04:17:24;;;;;;;35.40;21.60;;;;;;;;;;6287280;22;20004;-93
2023/01/21 04:19:50;;;;;;;37.70;22.95;;;;;;;;;;6314078;22;20003;-94
2023/01/21 04:22:17;;;;;;;36.83;22.48;;;;;;;;;;6314151;22;19999;-92
2023/01/21 04:24:43;;;;;;;37.13;22.45;;;;;;;;;;6313535;22;20074;-95
2023/01/21 04:27:09;;;;;;;37.38;23.15;;;;;;;;;;6313393;22;20412;-95
2023/01/21 04:29:35;;;;;;;37.45;22.85;;;;;;;;;;6313886;22;20010;-93
2023/01/21 04:32:01;;;;;;;39.97;23.73;;;;;;;;;;6286053;22;20003;-92
2023/01/21 04:34:27;;;;;;;43.35;26.27;;;;;;;;;;6313372;22;19995;-93
2023/01/21 04:36:53;;;;;;;42.63;25.05;;;;;;;;;;6313523;22;20003;-93
2023/01/21 04:39:19;;;;;;;57.40;32.53;;;;;;;;;;6286550;22;20068;-94
2023/01/21 04:41:45;;;;;;;52.05;29.75;;;;;;;;;;6313749;22;20007;-92
2023/01/21 04:44:11;;;;;;;44.22;24.92;;;;;;;;;;6313873;22;20076;-92
2023/01/21 04:46:37;;;;;;;42.97;25.35;;;;;;;;;;6313105;22;19999;-92
2023/01/21 04:49:04;;;;;;;67.35;40.17;;;;;;;;;;6286138;22;20035;-93
2023/01/21 04:51:30;;;;;;;59.35;35.28;;;;;;;;;;6312808;22;20003;-93
2023/01/21 04:53:56;;;;;;;58.85;37.33;;;;;;;;;;6313112;22;20044;-93
2023/01/21 04:56:22;;;;;;;54.08;34.17;;;;;;;;;;6313108;22;20007;-93
2023/01/21 04:58:48;;;;;;;42.17;25.65;;;;;;;;;;6313587;22;19999;-93
2023/01/21 05:01:14;;;;;;;43.85;27.75;;;;;;;;;;6313255;22;20007;-94
2023/01/21 05:03:40;;;;;;;65.18;38.13;;;;;;;;;;6286316;22;20003;-94
2023/01/21 05:06:06;;;;;;;56.38;35.75;;;;;;;;;;6313314;22;20003;-94
2023/01/21 05:08:32;;;;;;;51.67;29.88;;;;;;;;;;6286524;22;20007;-95
2023/01/21 05:10:58;;;;;;;49.03;28.70;;;;;;;;;;6312970;22;20003;-96
2023/01/21 05:13:24;;;;;;;55.97;31.15;;;;;;;;;;6286239;22;20293;-94
2023/01/21 05:15:51;;;;;;;61.58;33.78;;;;;;;;;;6286553;22;19995;-93
2023/01/21 05:18:17;;;;;;;54.70;32.97;;;;;;;;;;6286359;22;20038;-94
2023/01/21 05:20:43;;;;;;;38.35;23.23;;;;;;;;;;6313466;22;20078;-95
2023/01/21 05:23:09;;;;;;;36.35;22.38;;;;;;;;;;6285978;22;20049;-95
2023/01/21 05:25:35;;;;;;;41.63;23.20;;;;;;;;;;6290239;22;20385;-93
2023/01/21 05:28:02;;;;;;;38.85;23.98;;;;;;;;;;6313442;22;20280;-93
2023/01/21 05:30:28;;;;;;;40.33;22.70;;;;;;;;;;6313261;22;20290;-94
2023/01/21 05:35:57;;;;;;;36.35;22.00;;;;;;;;;;6313021;22;20041;-94
2023/01/21 05:38:23;;;;;;;38.25;23.60;;;;;;;;;;6312874;22;20015;-93
2023/01/21 05:40:49;;;;;;;41.50;24.75;;;;;;;;;;6285967;22;20039;-94
2023/01/21 05:43:15;;;;;;;46.63;24.67;;;;;;;;;;6313200;22;20007;-94
2023/01/21 05:45:41;;;;;;;41.90;24.77;;;;;;;;;;6285872;22;20010;-93
2023/01/21 05:51:11;;;;;;;48.60;25.77;;;;;;;;;;6312900;22;20034;-94
2023/01/21 05:53:37;;;;;;;49.13;24.92;;;;;;;;;;6313257;22;20074;-95
2023/01/21 05:56:04;;;;;;;52.63;26.88;;;;;;;;;;6312846;22;20329;-93
2023/01/21 05:58:30;;;;;;;47.35;26.42;;;;;;;;;;6312711;22;20347;-94
2023/01/21 06:00:57;;;;;;;50.67;28.25;;;;;;;;;;6313747;22;20018;-94
2023/01/21 06:03:23;;;;;;;52.83;30.20;;;;;;;;;;6315080;22;20011;-94
2023/01/21 06:05:50;;;;;;;52.53;29.15;;;;;;;;;;6314715;22;19995;-94
2023/01/21 06:08:16;;;;;;;54.55;31.25;;;;;;;;;;6315164;22;20374;-94
2023/01/21 06:10:42;;;;;;;55.13;31.20;;;;;;;;;;6315250;22;20060;-93
2023/01/21 06:13:10;;;;;;;57.67;32.05;;;;;;;;;;6315079;22;19999;-94
2023/01/21 06:15:36;;;;;;;53.00;31.13;;;;;;;;;;6288128;22;20003;-95
2023/01/21 06:18:02;;;;;;;47.13;28.65;;;;;;;;;;6288060;22;20289;-94
2023/01/21 06:20:30;;;;;;;54.78;31.70;;;;;;;;;;6287587;22;20410;-93
2023/01/21 06:22:56;;;;;;;51.90;29.17;;;;;;;;;;6315050;22;20044;-94
2023/01/21 06:25:23;;;;;;;49.67;28.98;;;;;;;;;;6287548;22;20346;-95
2023/01/21 06:27:49;;;;;;;50.85;29.58;;;;;;;;;;6287825;22;20090;-94
2023/01/21 06:30:16;;;;;;;51.72;29.45;;;;;;;;;;6314306;22;20441;-94
2023/01/21 06:36:04;;;;;;;56.42;29.45;;;;;;;;;;6314768;22;20029;-95
2023/01/21 06:38:30;;;;;;;55.85;29.63;;;;;;;;;;6326168;22;20007;-96
2023/01/21 06:40:56;;;;;;;63.08;32.85;;;;;;;;;;6325454;22;19999;-96
2023/01/21 06:43:26;;;;;;;67.60;36.50;;;;;;;;;;6298318;22;20003;-96
2023/01/21 06:45:52;;;;;;;66.85;35.47;;;;;;;;;;6290929;22;20231;-94
2023/01/21 06:48:36;;;;;;;63.45;35.00;;;;;;;;;;6314906;22;20070;-93
2023/01/21 06:51:03;;;;;;;69.72;36.22;;;;;;;;;;6314187;22;20003;-95
2023/01/21 06:53:29;;;;;;;58.83;32.70;;;;;;;;;;6314847;22;19995;-91
2023/01/21 06:55:55;;;;;;;58.05;33.00;;;;;;;;;;6314341;22;20003;-92
2023/01/21 06:58:21;;;;;;;43.97;26.65;;;;;;;;;;6314107;22;20070;-94
2023/01/21 07:00:47;;;;;;;47.28;27.77;;;;;;;;;;6314708;22;20366;-94
2023/01/21 07:06:17;;;;;;;47.67;26.92;;;;;;;;;;6314494;22;20018;-95
2023/01/21 07:08:43;;;;;;;43.75;27.30;;;;;;;;;;6314406;22;20102;-95
2023/01/21 07:11:09;;;;;;;50.03;27.67;;;;;;;;;;6314743;22;20381;-95
2023/01/21 07:13:35;;;;;;;157.32;55.28;;;;;;;;;;6314601;22;19995;-95
2023/01/21 07:16:01;;;;;;;140.48;47.40;;;;;;;;;;6287483;22;20000;-96
2023/01/21 07:18:46;;;;;;;156.55;48.92;;;;;;;;;;6315550;22;20292;-96
2023/01/21 07:21:12;;;;;;;149.43;53.13;;;;;;;;;;6289375;22;20003;-95
2023/01/21 07:23:38;;;;;;;117.72;53.97;;;;;;;;;;6316369;22;20250;-96
2023/01/21 07:26:04;;;;;;;137.88;54.53;;;;;;;;;;6315410;22;20086;-95
2023/01/21 07:28:30;;;;;;;97.53;46.25;;;;;;;;;;6314840;22;20079;-95
2023/01/21 07:31:01;;;;;;;70.78;42.03;;;;;;;;;;6287208;22;20054;-96
2023/01/21 07:36:30;;;;;;;71.80;40.75;;;;;;;;;;6314831;22;20070;-96
2023/01/21 07:38:57;;;;;;;120.15;49.05;;;;;;;;;;6287628;22;20011;-96
2023/01/21 07:41:24;;;;;;;88.28;41.50;;;;;;;;;;6287468;22;20003;-96
2023/01/21 07:43:50;;;;;;;78.07;41.72;;;;;;;;;;6315542;22;20070;-96
2023/01/21 07:46:17;;;;;;;65.05;35.50;;;;;;;;;;6287687;22;20056;-93
2023/01/21 07:48:43;;;;;;;67.95;37.28;;;;;;;;;;6314120;22;20053;-93
2023/01/21 07:51:09;;;;;;;63.75;35.90;;;;;;;;;;6286825;22;20445;-92
2023/01/21 07:53:35;;;;;;;76.10;36.65;;;;;;;;;;6314293;22;20005;-93
2023/01/21 07:56:05;;;;;;;79.40;36.42;;;;;;;;;;6313847;22;20293;-92
2023/01/21 07:58:31;;;;;;;92.07;39.40;;;;;;;;;;6286616;22;20003;-92
2023/01/21 08:00:57;;;;;;;74.82;36.70;;;;;;;;;;6314233;22;20086;-92
2023/01/21 08:03:42;;;;;;;74.00;35.78;;;;;;;;;;6313562;22;20010;-92
2023/01/21 08:06:08;;;;;;;60.15;33.38;;;;;;;;;;6286523;22;20011;-96
2023/01/21 08:08:34;;;;;;;62.38;34.95;;;;;;;;;;6287450;22;20003;-93
2023/01/21 08:11:00;;;;;;;58.72;33.83;;;;;;;;;;6286835;22;20007;-93
2023/01/21 08:13:26;;;;;;;98.55;41.33;;;;;;;;;;6313352;22;20117;-91
2023/01/21 08:15:54;;;;;;;155.05;54.65;;;;;;;;;;6286780;22;20050;-92
2023/01/21 08:18:23;;;;;;;135.73;55.30;;;;;;;;;;6313384;22;20003;-93
2023/01/21 08:20:53;;;;;;;140.23;56.33;;;;;;;;;;6286684;22;19999;-94
2023/01/21 08:23:19;;;;;;;156.43;58.95;;;;;;;;;;6286360;22;20007;-93
2023/01/21 08:25:45;;;;;;;192.98;64.28;;;;;;;;;;6313400;22;20255;-93
2023/01/21 08:28:13;;;;;;;171.80;61.38;;;;;;;;;;6313759;22;20041;-93
2023/01/21 08:30:39;;;;;;;188.77;64.78;;;;;;;;;;6313320;22;20010;-93
2023/01/21 08:33:05;;;;;;;110.93;49.47;;;;;;;;;;6313729;22;19999;-94
2023/01/21 08:35:31;;;;;;;115.22;50.33;;;;;;;;;;6313319;22;20021;-93
2023/01/21 08:37:57;;;;;;;109.45;53.28;;;;;;;;;;6313564;22;20011;-93
2023/01/21 08:40:25;;;;;;;92.45;49.13;;;;;;;;;;6286483;22;20003;-93
2023/01/21 08:42:52;;;;;;;82.15;45.78;;;;;;;;;;6313585;22;20007;-93
2023/01/21 08:45:18;;;;;;;73.88;42.20;;;;;;;;;;6313833;22;20003;-93
2023/01/21 08:47:44;;;;;;;71.95;40.58;;;;;;;;;;6287140;22;20030;-93
2023/01/21 08:50:10;;;;;;;70.43;40.03;;;;;;;;;;6286100;22;20013;-92
2023/01/21 08:52:36;;;;;;;67.53;38.63;;;;;;;;;;6285918;22;19999;-91
2023/01/21 08:55:02;;;;;;;64.40;35.92;;;;;;;;;;6313104;22;20010;-96
2023/01/21 08:57:29;;;;;;;62.60;36.63;;;;;;;;;;6286441;22;20289;-96
2023/01/21 08:59:55;;;;;;;57.65;33.55;;;;;;;;;;6286598;22;20042;-95
2023/01/21 09:08:41;;;;;;;56.67;31.90;;;;;;;;;;6313565;22;20006;-94
2023/01/21 09:11:11;;;;;;;53.35;30.98;;;;;;;;;;6287521;22;20007;-96
2023/01/21 09:13:38;;;;;;;51.42;30.83;;;;;;;;;;6316066;22;19999;-96
2023/01/21 09:16:14;;;;;;;65.60;35.35;;;;;;;;;;6286090;22;20003;-91
2023/01/21 09:18:40;;;;;;;59.20;32.95;;;;;;;;;;6320949;22;19999;-88
2023/01/21 09:21:07;;;;;;;63.42;34.47;;;;;;;;;;6286016;22;20030;-95
2023/01/21 09:23:34;;;;;;;64.55;33.63;;;;;;;;;;6286468;22;20007;-96
2023/01/21 09:26:16;;;;;;;58.25;32.30;;;;;;;;;;6287119;22;20003;-96
2023/01/21 09:28:43;;;;;;;53.63;29.63;;;;;;;;;;6287871;22;20003;-96
2023/01/21 09:31:11;;;;;;;56.83;31.10;;;;;;;;;;6285976;22;20007;-95
2023/01/21 09:33:38;;;;;;;52.33;30.08;;;;;;;;;;6313253;22;20083;-93
2023/01/21 09:36:06;;;;;;;54.58;31.45;;;;;;;;;;6312973;22;20037;-92
2023/01/21 09:38:32;;;;;;;59.50;33.13;;;;;;;;;;6285639;22;20308;-94
2023/01/21 09:41:17;;;;;;;99.50;45.28;;;;;;;;;;6285777;22;20003;-93
2023/01/21 09:43:45;;;;;;;194.38;65.55;;;;;;;;;;6286037;22;20034;-95
2023/01/21 09:46:17;;;;;;;155.15;55.00;;;;;;;;;;6287010;22;20003;-96
2023/01/21 09:48:59;;;;;;;118.32;46.58;;;;;;;;;;6316081;22;20055;-94
2023/01/21 09:51:28;;;;;;;139.02;48.70;;;;;;;;;;6315010;22;20082;-96
2023/01/21 09:53:56;;;;;;;115.97;45.13;;;;;;;;;;6313293;22;19995;-92
2023/01/21 09:56:27;;;;;;;97.30;42.90;;;;;;;;;;6285241;22;20015;-92
2023/01/21 09:59:21;;;;;;;102.38;42.50;;;;;;;;;;6312811;22;20000;-93
2023/01/21 10:01:48;;;;;;;99.38;44.03;;;;;;;;;;6285581;22;20067;-95
2023/01/21 10:07:33;;;;;;;62.85;34.03;;;;;;;;;;6314730;22;20033;-96
2023/01/21 10:10:21;;;;;;;59.63;33.30;;;;;;;;;;6287950;22;20069;-91
2023/01/21 10:13:05;;;;;;;61.42;32.67;;;;;;;;;;6312581;22;20003;-91
2023/01/21 10:15:50;;;;;;;60.72;33.22;;;;;;;;;;6313034;22;20004;-91
2023/01/21 10:18:23;;;;;;;67.72;35.63;;;;;;;;;;6285391;22;20354;-89
2023/01/21 10:20:51;;;;;;;63.10;35.08;;;;;;;;;;6312282;22;20045;-88
2023/01/21 10:23:26;;;;;;;63.20;35.88;;;;;;;;;;6312510;22;20011;-87
2023/01/21 10:25:52;;;;;;;59.53;34.40;;;;;;;;;;6312873;22;20003;-91
2023/01/21 10:28:21;;;;;;;64.70;33.22;;;;;;;;;;6312474;22;20262;-90
2023/01/21 10:30:52;;;;;;;65.18;33.97;;;;;;;;;;6285301;22;20011;-90
2023/01/21 10:33:20;;;;;;;66.47;35.35;;;;;;;;;;6312661;22;19995;-89
2023/01/21 10:35:52;;;;;;;62.10;34.58;;;;;;;;;;6285650;22;20034;-91
2023/01/21 10:38:34;;;;;;;82.40;38.35;;;;;;;;;;6285479;22;20003;-88
2023/01/21 10:41:08;;;;;;;77.10;35.80;;;;;;;;;;6312775;22;20011;-91
2023/01/21 10:43:53;;;;;;;66.10;34.80;;;;;;;;;;6285502;22;20011;-91
2023/01/21 10:46:43;;;;;;;69.00;35.05;;;;;;;;;;6313213;22;20030;-89
2023/01/21 10:52:14;;;;;;;59.50;33.92;;;;;;;;;;6314560;22;20014;-92
2023/01/21 10:54:47;;;;;;;61.33;34.70;;;;;;;;;;6287010;22;19996;-91
2023/01/21 10:57:13;;;;;;;;;;;;;;;;;;6314855;22;20282;-90
2023/01/21 10:59:39;;;;;;;65.53;34.42;;;;;;;;;;6314699;22;19915;-92
2023/01/21 11:02:08;;;;;;;61.80;34.53;;;;;;;;;;6286443;22;20011;-91
2023/01/21 11:04:36;;;;;;;60.60;35.00;;;;;;;;;;6314966;22;20003;-90
2023/01/21 11:07:06;;;;;;;73.20;34.83;;;;;;;;;;6314310;22;20026;-89
2023/01/21 11:09:34;;;;;;;77.63;38.13;;;;;;;;;;6287079;22;20081;-88
2023/01/21 11:12:01;;;;;;;96.88;42.28;;;;;;;;;;6314365;22;19995;-88
2023/01/21 11:14:28;;;;;;;86.28;38.17;;;;;;;;;;6287315;22;20081;-88
2023/01/21 11:16:54;;;;;;;75.88;39.50;;;;;;;;;;6287074;22;20012;-89
2023/01/21 11:19:23;;;;;;;65.22;35.58;;;;;;;;;;6314044;22;20037;-87
2023/01/21 11:21:59;;;;;;;64.78;35.53;;;;;;;;;;6314723;22;20000;-88
2023/01/21 11:24:25;;;;;;;61.90;32.75;;;;;;;;;;6287161;22;19999;-89
2023/01/21 11:26:56;;;;;;;87.43;36.97;;;;;;;;;;6314168;22;19996;-90
2023/01/21 11:29:23;;;;;;;76.03;35.58;;;;;;;;;;6314270;22;19999;-92
2023/01/21 11:31:59;;;;;;;59.75;33.05;;;;;;;;;;6314406;22;20003;-91
2023/01/21 11:37:29;;;;;;;58.05;31.77;;;;;;;;;;6313934;22;20025;-89
2023/01/21 11:39:55;;;;;;;54.97;30.17;;;;;;;;;;6313426;22;20090;-92
2023/01/21 11:42:22;;;;;;;74.30;33.88;;;;;;;;;;6316815;22;19996;-95
2023/01/21 11:44:56;;;;;;;59.60;31.60;;;;;;;;;;6317703;22;20003;-90
2023/01/21 12:09:38;;;;;;;51.90;27.50;;;;;;;;;;6268693;22;20016;-96
2023/01/21 13:01:49;;;;;;;45.70;24.45;;;;;;;;;;6246545;22;19922;-95
2023/01/21 13:04:21;;;;;;;39.80;22.92;;;;;;;;;;6255633;22;20015;-93
2023/01/21 13:06:54;;;;;;;50.05;27.48;;;;;;;;;;6282596;22;20007;-95
2023/01/21 13:09:39;;;;;;;53.95;28.02;;;;;;;;;;6282044;22;20346;-92
2023/01/21 13:12:09;;;;;;;53.72;27.77;;;;;;;;;;6255277;22;20011;-95
2023/01/21 13:15:05;;;;;;;52.75;26.33;;;;;;;;;;6256487;22;20002;-96
2023/01/21 13:33:36;;;;;;;58.30;31.98;;;;;;;;;;6280002;22;19922;-92
2023/01/21 13:36:26;;;;;;;59.55;31.45;;;;;;;;;;6286012;22;20389;-96
2023/01/21 13:38:54;;;;;;;55.33;30.10;;;;;;;;;;6265006;22;20366;-96
2023/01/21 13:41:28;;;;;;;52.20;27.48;;;;;;;;;;6289376;22;20000;-96
2023/01/21 13:44:03;;;;;;;58.03;29.67;;;;;;;;;;6256454;23;20371;-96
2023/01/21 13:46:51;;;;;;;49.50;27.13;;;;;;;;;;6255739;23;20001;-95
2023/01/21 13:49:20;;;;;;;48.25;25.90;;;;;;;;;;6254619;23;20030;-96
2023/01/21 13:51:47;;;;;;;51.80;27.10;;;;;;;;;;6255089;23;20100;-96
2023/01/21 13:54:25;;;;;;;49.13;27.52;;;;;;;;;;6253313;23;20007;-96
2023/01/21 13:57:10;;;;;;;56.80;29.20;;;;;;;;;;6251421;23;20004;-96
2023/01/21 13:59:49;;;;;;;69.53;35.42;;;;;;;;;;6251573;23;20008;-96
2023/01/21 14:02:18;;;;;;;53.15;29.20;;;;;;;;;;6250774;23;20083;-95
2023/01/21 14:04:44;;;;;;;74.20;37.55;;;;;;;;;;6249991;23;20008;-96
2023/01/21 14:07:17;;;;;;;77.53;36.75;;;;;;;;;;6249687;23;20252;-96
2023/01/21 14:09:43;;;;;;;77.38;35.22;;;;;;;;;;6249664;23;20035;-96
2023/01/21 14:12:17;;;;;;;67.45;32.85;;;;;;;;;;6249411;23;20076;-96
2023/01/21 14:14:49;;;;;;;87.55;33.60;;;;;;;;;;6263390;22;20060;-95
2023/01/21 14:17:34;;;;;;;120.07;38.47;;;;;;;;;;6282336;22;19996;-95
2023/01/21 14:20:06;;;;;;;138.48;41.80;;;;;;;;;;6282077;22;20000;-95
2023/01/21 14:22:32;;;;;;;119.03;54.85;;;;;;;;;;6255231;22;20239;-96
2023/01/21 14:25:04;;;;;;;87.80;38.70;;;;;;;;;;6308950;22;20369;-96
2023/01/21 14:27:33;;;;;;;71.97;31.38;;;;;;;;;;6314669;22;20007;-96
2023/01/21 14:30:12;;;;;;;91.15;34.75;;;;;;;;;;6287704;22;20026;-96
2023/01/21 14:32:47;;;;;;;110.32;39.33;;;;;;;;;;6287652;22;20344;-96
2023/01/21 14:35:31;;;;;;;119.70;39.28;;;;;;;;;;6314707;22;20030;-95
2023/01/21 14:38:03;;;;;;;125.70;43.05;;;;;;;;;;6314538;22;20554;-93
2023/01/21 14:40:33;;;;;;;112.28;38.47;;;;;;;;;;6287696;22;20004;-93
2023/01/21 14:43:00;;;;;;;115.13;45.00;;;;;;;;;;6287765;22;20008;-93
2023/01/21 14:45:50;;;;;;;86.88;41.92;;;;;;;;;;6287861;22;20129;-94
2023/01/21 14:48:38;;;;;;;67.15;34.15;;;;;;;;;;6287856;22;20014;-93
2023/01/21 14:51:07;;;;;;;53.90;28.63;;;;;;;;;;6314740;22;20048;-94
2023/01/21 14:53:45;;;;;;;52.67;27.38;;;;;;;;;;6287784;22;20003;-95
2023/01/21 14:56:20;;;;;;;44.88;24.45;;;;;;;;;;6287410;22;20001;-95
2023/01/21 14:58:47;;;;;;;53.40;28.02;;;;;;;;;;6314746;22;19996;-94
2023/01/21 15:01:28;;;;;;;68.35;31.63;;;;;;;;;;6287502;22;20021;-95
2023/01/21 15:03:55;;;;;;;49.92;24.83;;;;;;;;;;6287324;22;20016;-96
2023/01/21 15:06:23;;;;;;;59.70;28.60;;;;;;;;;;6287646;22;20327;-95
2023/01/21 15:08:55;;;;;;;67.50;29.73;;;;;;;;;;6302111;22;20027;-94
2023/01/21 15:11:33;;;;;;;67.78;29.35;;;;;;;;;;6287591;22;19995;-95
2023/01/21 15:14:10;;;;;;;57.45;26.55;;;;;;;;;;6287437;22;20000;-95
2023/01/21 15:16:40;;;;;;;61.72;27.23;;;;;;;;;;6313922;22;20002;-96
2023/01/21 15:19:10;;;;;;;56.97;25.60;;;;;;;;;;6314009;22;20006;-95
2023/01/21 15:21:37;;;;;;;52.97;24.80;;;;;;;;;;6314827;22;19999;-94
2023/01/21 15:24:12;;;;;;;54.90;25.40;;;;;;;;;;6314359;22;20362;-95
2023/01/21 15:26:41;;;;;;;47.63;23.45;;;;;;;;;;6287048;22;20007;-95
2023/01/21 15:29:31;;;;;;;50.90;24.63;;;;;;;;;;6287203;22;20052;-94
2023/01/21 15:32:11;;;;;;;53.53;25.05;;;;;;;;;;6286654;22;20011;-94
2023/01/21 15:34:37;;;;;;;49.38;24.40;;;;;;;;;;6286883;22;20084;-94
2023/01/21 15:37:04;;;;;;;47.00;23.50;;;;;;;;;;6287056;22;19999;-93
2023/01/21 15:39:33;;;;;;;46.47;23.20;;;;;;;;;;6287097;22;20325;-94
2023/01/21 15:42:05;;;;;;;46.55;23.70;;;;;;;;;;6287255;22;20000;-93
2023/01/21 15:44:38;;;;;;;41.75;22.63;;;;;;;;;;6287287;22;20354;-94
2023/01/21 15:47:04;;;;;;;46.45;25.17;;;;;;;;;;6287091;22;20006;-94
2023/01/21 15:49:57;;;;;;;44.42;24.10;;;;;;;;;;6313638;22;19995;-94
2023/01/21 15:52:38;;;;;;;46.85;24.55;;;;;;;;;;6320089;22;20125;-96
2023/01/21 15:55:28;;;;;;;44.38;23.92;;;;;;;;;;6322939;22;20003;-96
2023/01/21 15:58:12;;;;;;;48.80;24.58;;;;;;;;;;6332056;22;20063;-96
2023/01/21 16:03:32;;;;;;;49.78;23.95;;;;;;;;;;6307954;22;20042;-89
2023/01/21 16:06:01;;;;;;;50.13;25.77;;;;;;;;;;6314070;22;20024;-88
2023/01/21 16:08:39;;;;;;;47.70;24.90;;;;;;;;;;6286685;22;20381;-88
2023/01/21 16:11:11;;;;;;;53.45;27.38;;;;;;;;;;6286643;22;20011;-88
2023/01/21 16:13:53;;;;;;;53.40;27.20;;;;;;;;;;6314026;22;20000;-88
2023/01/21 16:16:31;;;;;;;52.23;26.63;;;;;;;;;;6314123;22;19999;-90
2023/01/21 16:19:03;;;;;;;50.33;25.00;;;;;;;;;;6314275;22;19999;-92
2023/01/21 16:21:34;;;;;;;50.08;25.58;;;;;;;;;;6314113;22;20060;-93
2023/01/21 16:27:47;;;;;;;;;;;;;;;;;;;;;
2023/01/21 16:42:32;;;;;;;46.10;23.60;;;;;;;;;;6315013;22;20049;-96
2023/01/21 16:45:12;;;;;;;43.50;22.05;;;;;;;;;;6210732;23;20352;-96
2023/01/21 16:48:14;;;;;;;44.35;22.58;;;;;;;;;;6153695;23;20082;-96
2023/01/21 16:53:25;;;;;;;48.25;22.77;;;;;;;;;;6141303;23;19944;-96
2023/01/21 16:55:53;;;;;;;47.22;23.75;;;;;;;;;;6137673;23;20053;-95
2023/01/21 16:58:20;;;;;;;49.53;24.98;;;;;;;;;;6137947;23;20010;-95
2023/01/21 17:00:58;;;;;;;48.92;23.92;;;;;;;;;;6137495;23;20081;-94
2023/01/21 17:03:24;;;;;;;45.42;24.13;;;;;;;;;;6138241;23;20006;-95
2023/01/21 17:05:51;;;;;;;46.33;24.10;;;;;;;;;;6138459;23;20463;-94
2023/01/21 17:08:17;;;;;;;44.55;24.27;;;;;;;;;;6113598;23;20389;-94
2023/01/21 17:10:58;;;;;;;50.20;26.27;;;;;;;;;;6137731;23;20018;-94
2023/01/21 17:13:26;;;;;;;49.27;25.83;;;;;;;;;;6136518;23;20358;-93
2023/01/21 17:15:59;;;;;;;46.28;25.10;;;;;;;;;;6137766;23;20014;-94
2023/01/21 17:18:31;;;;;;;48.00;25.52;;;;;;;;;;6138318;23;20008;-94
2023/01/21 17:21:08;;;;;;;44.15;24.52;;;;;;;;;;6140764;23;20005;-94
2023/01/21 17:23:49;;;;;;;48.28;25.42;;;;;;;;;;6221786;22;20007;-94